ポルト・アレグレ の空港の天気 - METARとTAF

ポルト・アレグレ国際空港 ( SBPA / POA ) - ブラジル リオグランデ・ド・スル州ポルト・アレグレ
飛行場実況気象(Metar)
観測時間06/24 06:00 BRT (06/24 09:00 UTC)
風向・風速西 1m/s
視程10km以上
天気現象
なし
気温16℃
湿度94%
気圧1013hPa
METARSBPA 240900Z 28002KT CAVOK 16/15 Q1013
過去の天気等 Google飛行場航空写真 Wunderground天気予報

過去48時間のMETAR

飛行場予報(TAF)
発表時間: 6/24 00:00 BRT (6/24 03:00 UTC)
予報対象時間: 24日3時 BRT ~ 25日3時 BRT
風向・風速北西 4m/s
視程10km以上
なし
24日6時 BRT から 確率 40% で
風向・風速静穏
視程2000m
天気現象もや
なし
TAF SBPA 240300Z 2406/2506 32007KT CAVOK TN15/2409Z TX29/2418Z
PROB40 2409/2411 00000KT 2000 BR NSC RMK PDJ